sensor_id;sensor_type;location;lat;lon;timestamp;P1;durP1;ratioP1;P2;durP2;ratioP2
313;SDS011;143;51.634;7.112;2024-01-15T00:00:41;70.90;;;32.67;;
313;SDS011;143;51.634;7.112;2024-01-15T00:03:07;66.75;;;34.25;;
313;SDS011;143;51.634;7.112;2024-01-15T00:05:33;73.23;;;33.30;;
313;SDS011;143;51.634;7.112;2024-01-15T00:07:58;61.13;;;30.67;;
313;SDS011;143;51.634;7.112;2024-01-15T00:10:24;77.43;;;34.00;;
313;SDS011;143;51.634;7.112;2024-01-15T00:12:49;66.60;;;34.77;;
313;SDS011;143;51.634;7.112;2024-01-15T00:15:15;72.87;;;33.90;;
313;SDS011;143;51.634;7.112;2024-01-15T00:17:41;63.27;;;31.27;;
313;SDS011;143;51.634;7.112;2024-01-15T00:20:06;58.20;;;29.10;;
313;SDS011;143;51.634;7.112;2024-01-15T00:22:32;65.27;;;32.37;;
313;SDS011;143;51.634;7.112;2024-01-15T00:25:00;65.47;;;30.50;;
313;SDS011;143;51.634;7.112;2024-01-15T00:27:26;72.00;;;31.93;;
313;SDS011;143;51.634;7.112;2024-01-15T00:29:51;69.87;;;32.17;;
313;SDS011;143;51.634;7.112;2024-01-15T00:32:17;62.83;;;31.47;;
313;SDS011;143;51.634;7.112;2024-01-15T00:34:43;65.60;;;30.97;;
313;SDS011;143;51.634;7.112;2024-01-15T00:37:08;64.70;;;32.70;;
313;SDS011;143;51.634;7.112;2024-01-15T00:39:34;62.27;;;30.30;;
313;SDS011;143;51.634;7.112;2024-01-15T00:41:59;63.43;;;31.33;;
313;SDS011;143;51.634;7.112;2024-01-15T00:44:25;70.37;;;32.50;;
313;SDS011;143;51.634;7.112;2024-01-15T00:46:50;66.10;;;32.67;;
313;SDS011;143;51.634;7.112;2024-01-15T00:49:16;68.67;;;33.10;;
313;SDS011;143;51.634;7.112;2024-01-15T00:51:41;64.17;;;32.27;;
313;SDS011;143;51.634;7.112;2024-01-15T00:54:07;56.70;;;28.48;;
313;SDS011;143;51.634;7.112;2024-01-15T00:56:33;80.57;;;32.03;;
313;SDS011;143;51.634;7.112;2024-01-15T00:58:59;61.20;;;30.03;;
313;SDS011;143;51.634;7.112;2024-01-15T01:01:25;61.95;;;29.65;;
313;SDS011;143;51.634;7.112;2024-01-15T01:03:50;59.30;;;28.93;;
313;SDS011;143;51.634;7.112;2024-01-15T01:06:16;50.77;;;27.90;;
313;SDS011;143;51.634;7.112;2024-01-15T01:08:41;62.47;;;30.17;;
313;SDS011;143;51.634;7.112;2024-01-15T01:11:07;68.23;;;30.97;;
313;SDS011;143;51.634;7.112;2024-01-15T01:13:32;60.10;;;28.73;;
313;SDS011;143;51.634;7.112;2024-01-15T01:15:58;55.67;;;26.60;;
313;SDS011;143;51.634;7.112;2024-01-15T01:18:23;66.27;;;27.70;;
313;SDS011;143;51.634;7.112;2024-01-15T01:20:49;52.37;;;25.10;;
313;SDS011;143;51.634;7.112;2024-01-15T01:23:16;56.10;;;25.83;;
313;SDS011;143;51.634;7.112;2024-01-15T01:25:41;52.63;;;25.80;;
313;SDS011;143;51.634;7.112;2024-01-15T01:28:07;55.67;;;24.90;;
313;SDS011;143;51.634;7.112;2024-01-15T01:30:32;44.90;;;21.43;;
313;SDS011;143;51.634;7.112;2024-01-15T01:32:58;48.50;;;23.90;;
313;SDS011;143;51.634;7.112;2024-01-15T01:35:23;44.77;;;21.33;;
313;SDS011;143;51.634;7.112;2024-01-15T01:37:49;43.10;;;21.30;;
313;SDS011;143;51.634;7.112;2024-01-15T01:40:15;45.97;;;20.47;;
313;SDS011;143;51.634;7.112;2024-01-15T01:42:41;45.30;;;21.40;;
313;SDS011;143;51.634;7.112;2024-01-15T01:45:06;45.67;;;20.93;;
313;SDS011;143;51.634;7.112;2024-01-15T01:47:32;40.85;;;19.70;;
313;SDS011;143;51.634;7.112;2024-01-15T01:49:58;36.97;;;18.43;;
313;SDS011;143;51.634;7.112;2024-01-15T01:52:23;39.00;;;19.60;;
313;SDS011;143;51.634;7.112;2024-01-15T01:54:49;45.30;;;20.10;;
313;SDS011;143;51.634;7.112;2024-01-15T01:57:16;47.55;;;19.70;;
313;SDS011;143;51.634;7.112;2024-01-15T01:59:43;46.92;;;22.50;;
313;SDS011;143;51.634;7.112;2024-01-15T02:02:10;38.97;;;19.30;;
313;SDS011;143;51.634;7.112;2024-01-15T02:04:36;43.53;;;20.27;;
313;SDS011;143;51.634;7.112;2024-01-15T02:07:03;43.25;;;21.48;;
313;SDS011;143;51.634;7.112;2024-01-15T02:09:29;42.90;;;22.10;;
313;SDS011;143;51.634;7.112;2024-01-15T02:11:54;41.37;;;20.60;;
313;SDS011;143;51.634;7.112;2024-01-15T02:14:20;42.37;;;18.50;;
313;SDS011;143;51.634;7.112;2024-01-15T02:16:46;43.63;;;20.00;;
313;SDS011;143;51.634;7.112;2024-01-15T02:19:15;46.97;;;21.37;;
313;SDS011;143;51.634;7.112;2024-01-15T02:21:44;36.53;;;18.35;;
313;SDS011;143;51.634;7.112;2024-01-15T02:24:10;40.07;;;19.50;;
313;SDS011;143;51.634;7.112;2024-01-15T02:26:36;42.88;;;18.52;;
313;SDS011;143;51.634;7.112;2024-01-15T02:29:03;42.20;;;20.25;;
313;SDS011;143;51.634;7.112;2024-01-15T02:31:30;36.80;;;19.08;;
313;SDS011;143;51.634;7.112;2024-01-15T02:33:56;47.97;;;19.87;;
313;SDS011;143;51.634;7.112;2024-01-15T02:36:21;37.63;;;20.90;;
313;SDS011;143;51.634;7.112;2024-01-15T02:38:47;35.07;;;19.07;;
313;SDS011;143;51.634;7.112;2024-01-15T02:41:12;37.33;;;17.87;;
313;SDS011;143;51.634;7.112;2024-01-15T02:43:39;35.17;;;18.73;;
313;SDS011;143;51.634;7.112;2024-01-15T02:46:05;36.13;;;20.30;;
313;SDS011;143;51.634;7.112;2024-01-15T02:48:31;33.17;;;18.47;;
313;SDS011;143;51.634;7.112;2024-01-15T02:50:58;35.67;;;18.65;;
313;SDS011;143;51.634;7.112;2024-01-15T02:53:23;33.43;;;20.03;;
313;SDS011;143;51.634;7.112;2024-01-15T02:55:49;32.67;;;18.43;;
313;SDS011;143;51.634;7.112;2024-01-15T02:58:15;41.00;;;19.40;;
313;SDS011;143;51.634;7.112;2024-01-15T03:00:40;33.17;;;17.80;;
313;SDS011;143;51.634;7.112;2024-01-15T03:03:06;29.83;;;15.77;;
313;SDS011;143;51.634;7.112;2024-01-15T03:05:31;37.17;;;16.60;;
313;SDS011;143;51.634;7.112;2024-01-15T03:07:57;28.97;;;16.67;;
313;SDS011;143;51.634;7.112;2024-01-15T03:10:22;42.00;;;19.33;;
313;SDS011;143;51.634;7.112;2024-01-15T03:12:48;41.40;;;19.93;;
313;SDS011;143;51.634;7.112;2024-01-15T03:15:13;32.87;;;18.50;;
313;SDS011;143;51.634;7.112;2024-01-15T03:17:41;38.63;;;18.33;;
313;SDS011;143;51.634;7.112;2024-01-15T03:20:07;39.85;;;18.70;;
313;SDS011;143;51.634;7.112;2024-01-15T03:22:33;45.65;;;20.80;;
313;SDS011;143;51.634;7.112;2024-01-15T03:24:59;30.73;;;17.37;;
313;SDS011;143;51.634;7.112;2024-01-15T03:27:24;36.63;;;17.87;;
313;SDS011;143;51.634;7.112;2024-01-15T03:29:51;45.28;;;17.92;;
313;SDS011;143;51.634;7.112;2024-01-15T03:32:16;28.83;;;16.90;;
313;SDS011;143;51.634;7.112;2024-01-15T03:34:42;31.97;;;16.37;;
313;SDS011;143;51.634;7.112;2024-01-15T03:37:08;37.13;;;18.43;;
313;SDS011;143;51.634;7.112;2024-01-15T03:39:33;33.87;;;19.47;;
313;SDS011;143;51.634;7.112;2024-01-15T03:41:59;32.67;;;17.23;;
313;SDS011;143;51.634;7.112;2024-01-15T03:44:24;38.37;;;16.27;;
313;SDS011;143;51.634;7.112;2024-01-15T03:46:50;36.27;;;17.63;;
313;SDS011;143;51.634;7.112;2024-01-15T03:49:15;33.20;;;16.17;;
313;SDS011;143;51.634;7.112;2024-01-15T03:51:41;35.07;;;15.07;;
313;SDS011;143;51.634;7.112;2024-01-15T03:54:06;30.10;;;15.90;;
313;SDS011;143;51.634;7.112;2024-01-15T03:56:32;40.73;;;16.50;;
313;SDS011;143;51.634;7.112;2024-01-15T03:58:57;43.60;;;17.00;;
313;SDS011;143;51.634;7.112;2024-01-15T04:01:23;36.70;;;14.50;;
313;SDS011;143;51.634;7.112;2024-01-15T04:03:48;42.60;;;14.10;;
313;SDS011;143;51.634;7.112;2024-01-15T04:06:14;32.60;;;13.80;;
313;SDS011;143;51.634;7.112;2024-01-15T04:08:39;27.97;;;13.53;;
313;SDS011;143;51.634;7.112;2024-01-15T04:11:05;27.23;;;14.27;;
313;SDS011;143;51.634;7.112;2024-01-15T04:13:34;26.02;;;12.60;;
313;SDS011;143;51.634;7.112;2024-01-15T04:15:59;24.10;;;11.95;;
313;SDS011;143;51.634;7.112;2024-01-15T04:18:25;31.20;;;11.50;;
313;SDS011;143;51.634;7.112;2024-01-15T04:20:51;23.63;;;11.77;;
313;SDS011;143;51.634;7.112;2024-01-15T04:23:16;21.47;;;11.20;;
313;SDS011;143;51.634;7.112;2024-01-15T04:25:42;26.43;;;11.17;;
313;SDS011;143;51.634;7.112;2024-01-15T04:28:08;23.33;;;10.93;;
313;SDS011;143;51.634;7.112;2024-01-15T04:30:34;20.17;;;10.55;;
313;SDS011;143;51.634;7.112;2024-01-15T04:33:00;23.43;;;12.20;;
313;SDS011;143;51.634;7.112;2024-01-15T04:35:26;26.87;;;11.17;;
313;SDS011;143;51.634;7.112;2024-01-15T04:37:51;28.20;;;11.37;;
313;SDS011;143;51.634;7.112;2024-01-15T04:40:17;31.33;;;11.70;;
313;SDS011;143;51.634;7.112;2024-01-15T04:42:42;28.57;;;11.47;;
313;SDS011;143;51.634;7.112;2024-01-15T04:45:10;16.33;;;9.30;;
313;SDS011;143;51.634;7.112;2024-01-15T04:47:36;17.63;;;9.73;;
313;SDS011;143;51.634;7.112;2024-01-15T04:50:02;17.53;;;11.20;;
313;SDS011;143;51.634;7.112;2024-01-15T04:52:28;18.30;;;10.43;;
313;SDS011;143;51.634;7.112;2024-01-15T04:54:54;27.10;;;11.63;;
313;SDS011;143;51.634;7.112;2024-01-15T04:57:19;21.00;;;10.53;;
313;SDS011;143;51.634;7.112;2024-01-15T04:59:45;28.73;;;11.97;;
313;SDS011;143;51.634;7.112;2024-01-15T05:02:10;26.30;;;13.57;;
313;SDS011;143;51.634;7.112;2024-01-15T05:04:36;25.53;;;11.90;;
313;SDS011;143;51.634;7.112;2024-01-15T05:07:01;25.53;;;12.60;;
313;SDS011;143;51.634;7.112;2024-01-15T05:09:27;20.23;;;11.00;;
313;SDS011;143;51.634;7.112;2024-01-15T05:11:53;23.80;;;12.50;;
313;SDS011;143;51.634;7.112;2024-01-15T05:14:19;27.73;;;12.13;;
313;SDS011;143;51.634;7.112;2024-01-15T05:16:48;27.60;;;11.00;;
313;SDS011;143;51.634;7.112;2024-01-15T05:19:14;32.50;;;12.90;;
313;SDS011;143;51.634;7.112;2024-01-15T05:21:40;21.43;;;11.63;;
313;SDS011;143;51.634;7.112;2024-01-15T05:24:05;22.53;;;11.53;;
313;SDS011;143;51.634;7.112;2024-01-15T05:26:31;28.13;;;12.33;;
313;SDS011;143;51.634;7.112;2024-01-15T05:28:56;24.93;;;11.50;;
313;SDS011;143;51.634;7.112;2024-01-15T05:31:22;24.43;;;12.03;;
313;SDS011;143;51.634;7.112;2024-01-15T05:33:48;19.10;;;11.73;;
313;SDS011;143;51.634;7.112;2024-01-15T05:36:13;23.80;;;11.77;;
313;SDS011;143;51.634;7.112;2024-01-15T05:38:39;21.70;;;11.20;;
313;SDS011;143;51.634;7.112;2024-01-15T05:41:05;23.47;;;11.03;;
313;SDS011;143;51.634;7.112;2024-01-15T05:43:31;19.27;;;10.13;;
313;SDS011;143;51.634;7.112;2024-01-15T05:45:56;19.63;;;11.10;;
313;SDS011;143;51.634;7.112;2024-01-15T05:48:22;20.50;;;10.07;;
313;SDS011;143;51.634;7.112;2024-01-15T05:50:47;20.07;;;10.67;;
313;SDS011;143;51.634;7.112;2024-01-15T05:53:13;21.67;;;10.60;;
313;SDS011;143;51.634;7.112;2024-01-15T05:55:39;27.30;;;12.30;;
313;SDS011;143;51.634;7.112;2024-01-15T05:58:05;19.83;;;10.83;;
313;SDS011;143;51.634;7.112;2024-01-15T06:00:30;22.37;;;10.10;;
313;SDS011;143;51.634;7.112;2024-01-15T06:02:57;21.40;;;10.45;;
313;SDS011;143;51.634;7.112;2024-01-15T06:05:24;23.25;;;10.55;;
313;SDS011;143;51.634;7.112;2024-01-15T06:07:49;22.60;;;10.23;;
313;SDS011;143;51.634;7.112;2024-01-15T06:10:15;17.50;;;10.47;;
313;SDS011;143;51.634;7.112;2024-01-15T06:12:40;21.00;;;9.53;;
313;SDS011;143;51.634;7.112;2024-01-15T06:15:08;19.75;;;9.70;;
313;SDS011;143;51.634;7.112;2024-01-15T06:17:33;13.80;;;9.93;;
313;SDS011;143;51.634;7.112;2024-01-15T06:19:59;21.13;;;10.33;;
313;SDS011;143;51.634;7.112;2024-01-15T06:22:25;28.23;;;12.03;;
313;SDS011;143;51.634;7.112;2024-01-15T06:24:50;21.80;;;10.70;;
313;SDS011;143;51.634;7.112;2024-01-15T06:27:16;24.13;;;11.43;;
313;SDS011;143;51.634;7.112;2024-01-15T06:29:44;23.53;;;11.93;;
313;SDS011;143;51.634;7.112;2024-01-15T06:32:11;19.85;;;11.43;;
313;SDS011;143;51.634;7.112;2024-01-15T06:34:36;25.43;;;11.07;;
313;SDS011;143;51.634;7.112;2024-01-15T06:37:02;25.43;;;11.27;;
313;SDS011;143;51.634;7.112;2024-01-15T06:39:27;25.27;;;11.20;;
313;SDS011;143;51.634;7.112;2024-01-15T06:41:53;17.80;;;10.37;;
313;SDS011;143;51.634;7.112;2024-01-15T06:44:18;22.67;;;11.33;;
313;SDS011;143;51.634;7.112;2024-01-15T06:46:46;18.92;;;9.85;;
313;SDS011;143;51.634;7.112;2024-01-15T06:49:12;39.22;;;13.13;;
313;SDS011;143;51.634;7.112;2024-01-15T06:51:38;23.73;;;10.70;;
313;SDS011;143;51.634;7.112;2024-01-15T06:54:04;36.07;;;11.40;;
313;SDS011;143;51.634;7.112;2024-01-15T06:56:29;16.53;;;10.57;;
313;SDS011;143;51.634;7.112;2024-01-15T06:58:56;21.63;;;11.30;;
313;SDS011;143;51.634;7.112;2024-01-15T07:01:21;17.33;;;10.30;;
313;SDS011;143;51.634;7.112;2024-01-15T07:03:47;24.50;;;10.57;;
313;SDS011;143;51.634;7.112;2024-01-15T07:06:13;15.57;;;8.90;;
313;SDS011;143;51.634;7.112;2024-01-15T07:08:39;20.83;;;8.60;;
313;SDS011;143;51.634;7.112;2024-01-15T07:11:05;19.08;;;8.00;;
313;SDS011;143;51.634;7.112;2024-01-15T07:13:31;18.33;;;8.60;;
313;SDS011;143;51.634;7.112;2024-01-15T07:15:57;13.27;;;8.52;;
313;SDS011;143;51.634;7.112;2024-01-15T07:18:22;13.27;;;7.60;;
313;SDS011;143;51.634;7.112;2024-01-15T07:20:48;21.50;;;8.37;;
313;SDS011;143;51.634;7.112;2024-01-15T07:23:14;14.93;;;6.40;;
313;SDS011;143;51.634;7.112;2024-01-15T07:25:40;18.30;;;6.50;;
313;SDS011;143;51.634;7.112;2024-01-15T07:28:05;13.93;;;6.87;;
313;SDS011;143;51.634;7.112;2024-01-15T07:30:31;15.50;;;5.60;;
313;SDS011;143;51.634;7.112;2024-01-15T07:32:56;10.20;;;5.50;;
313;SDS011;143;51.634;7.112;2024-01-15T07:35:22;10.77;;;5.50;;
313;SDS011;143;51.634;7.112;2024-01-15T07:37:47;13.63;;;5.90;;
313;SDS011;143;51.634;7.112;2024-01-15T07:40:13;15.20;;;5.23;;
313;SDS011;143;51.634;7.112;2024-01-15T07:42:39;9.67;;;4.60;;
313;SDS011;143;51.634;7.112;2024-01-15T07:45:05;10.50;;;5.40;;
313;SDS011;143;51.634;7.112;2024-01-15T07:47:31;8.48;;;5.50;;
313;SDS011;143;51.634;7.112;2024-01-15T07:49:56;13.00;;;6.47;;
313;SDS011;143;51.634;7.112;2024-01-15T07:52:22;8.37;;;5.20;;
313;SDS011;143;51.634;7.112;2024-01-15T07:54:47;8.10;;;5.17;;
313;SDS011;143;51.634;7.112;2024-01-15T07:57:13;11.57;;;6.27;;
313;SDS011;143;51.634;7.112;2024-01-15T07:59:39;8.87;;;5.80;;
313;SDS011;143;51.634;7.112;2024-01-15T08:02:05;11.43;;;5.70;;
313;SDS011;143;51.634;7.112;2024-01-15T08:04:30;11.00;;;5.67;;
313;SDS011;143;51.634;7.112;2024-01-15T08:06:56;10.10;;;5.70;;
313;SDS011;143;51.634;7.112;2024-01-15T08:09:22;15.23;;;6.43;;
313;SDS011;143;51.634;7.112;2024-01-15T08:11:47;8.27;;;5.10;;
313;SDS011;143;51.634;7.112;2024-01-15T08:14:14;8.45;;;5.10;;
313;SDS011;143;51.634;7.112;2024-01-15T08:16:40;9.67;;;5.90;;
313;SDS011;143;51.634;7.112;2024-01-15T08:19:06;10.57;;;5.13;;
313;SDS011;143;51.634;7.112;2024-01-15T08:21:31;11.70;;;4.30;;
313;SDS011;143;51.634;7.112;2024-01-15T08:23:57;10.27;;;5.70;;
313;SDS011;143;51.634;7.112;2024-01-15T08:26:24;9.75;;;6.10;;
313;SDS011;143;51.634;7.112;2024-01-15T08:28:49;16.02;;;6.32;;
313;SDS011;143;51.634;7.112;2024-01-15T08:31:15;11.97;;;6.47;;
313;SDS011;143;51.634;7.112;2024-01-15T08:33:41;8.13;;;6.47;;
313;SDS011;143;51.634;7.112;2024-01-15T08:36:06;9.47;;;5.63;;
313;SDS011;143;51.634;7.112;2024-01-15T08:38:32;12.13;;;5.63;;
313;SDS011;143;51.634;7.112;2024-01-15T08:40:58;7.27;;;5.07;;
313;SDS011;143;51.634;7.112;2024-01-15T08:43:25;9.10;;;5.28;;
313;SDS011;143;51.634;7.112;2024-01-15T08:45:55;8.30;;;4.97;;
313;SDS011;143;51.634;7.112;2024-01-15T08:48:21;11.47;;;4.87;;
313;SDS011;143;51.634;7.112;2024-01-15T08:50:47;9.93;;;5.07;;
313;SDS011;143;51.634;7.112;2024-01-15T08:53:13;6.83;;;5.30;;
313;SDS011;143;51.634;7.112;2024-01-15T08:55:39;7.97;;;5.07;;
313;SDS011;143;51.634;7.112;2024-01-15T08:58:07;7.97;;;5.90;;
313;SDS011;143;51.634;7.112;2024-01-15T09:00:33;7.53;;;5.13;;
313;SDS011;143;51.634;7.112;2024-01-15T09:02:58;9.03;;;5.83;;
313;SDS011;143;51.634;7.112;2024-01-15T09:05:24;8.20;;;5.70;;
313;SDS011;143;51.634;7.112;2024-01-15T09:07:50;7.20;;;5.60;;
313;SDS011;143;51.634;7.112;2024-01-15T09:10:17;12.98;;;6.07;;
313;SDS011;143;51.634;7.112;2024-01-15T09:12:43;9.30;;;5.85;;
313;SDS011;143;51.634;7.112;2024-01-15T09:15:08;8.63;;;5.33;;
313;SDS011;143;51.634;7.112;2024-01-15T09:17:34;5.73;;;4.73;;
313;SDS011;143;51.634;7.112;2024-01-15T09:19:59;8.33;;;5.10;;
313;SDS011;143;51.634;7.112;2024-01-15T09:22:25;12.00;;;5.63;;
313;SDS011;143;51.634;7.112;2024-01-15T09:24:51;10.23;;;5.50;;
313;SDS011;143;51.634;7.112;2024-01-15T09:27:17;6.90;;;3.83;;
313;SDS011;143;51.634;7.112;2024-01-15T09:29:43;6.37;;;4.63;;
313;SDS011;143;51.634;7.112;2024-01-15T09:32:10;6.45;;;4.47;;
313;SDS011;143;51.634;7.112;2024-01-15T09:34:37;5.30;;;4.13;;
313;SDS011;143;51.634;7.112;2024-01-15T09:37:02;5.53;;;3.93;;
313;SDS011;143;51.634;7.112;2024-01-15T09:39:29;4.90;;;3.08;;
313;SDS011;143;51.634;7.112;2024-01-15T09:41:55;4.18;;;3.25;;
313;SDS011;143;51.634;7.112;2024-01-15T09:44:22;3.90;;;3.10;;
313;SDS011;143;51.634;7.112;2024-01-15T09:46:48;5.80;;;3.87;;
313;SDS011;143;51.634;7.112;2024-01-15T09:49:17;4.43;;;3.05;;
313;SDS011;143;51.634;7.112;2024-01-15T09:51:42;6.25;;;3.10;;
313;SDS011;143;51.634;7.112;2024-01-15T09:54:08;4.90;;;2.67;;
313;SDS011;143;51.634;7.112;2024-01-15T09:56:34;3.83;;;2.60;;
313;SDS011;143;51.634;7.112;2024-01-15T09:59:00;2.88;;;2.58;;
313;SDS011;143;51.634;7.112;2024-01-15T10:01:26;3.37;;;2.73;;
313;SDS011;143;51.634;7.112;2024-01-15T10:03:52;4.18;;;3.35;;
313;SDS011;143;51.634;7.112;2024-01-15T10:06:19;8.32;;;3.47;;
313;SDS011;143;51.634;7.112;2024-01-15T10:08:47;7.60;;;3.97;;
313;SDS011;143;51.634;7.112;2024-01-15T10:11:14;8.98;;;3.92;;
313;SDS011;143;51.634;7.112;2024-01-15T10:13:40;5.87;;;4.50;;
313;SDS011;143;51.634;7.112;2024-01-15T10:16:05;5.27;;;3.87;;
313;SDS011;143;51.634;7.112;2024-01-15T10:18:31;8.50;;;5.13;;
313;SDS011;143;51.634;7.112;2024-01-15T10:20:57;9.20;;;5.10;;
313;SDS011;143;51.634;7.112;2024-01-15T10:23:23;6.70;;;5.63;;
313;SDS011;143;51.634;7.112;2024-01-15T10:25:51;9.07;;;4.68;;
313;SDS011;143;51.634;7.112;2024-01-15T10:28:18;7.77;;;5.10;;
313;SDS011;143;51.634;7.112;2024-01-15T10:30:44;9.60;;;4.93;;
313;SDS011;143;51.634;7.112;2024-01-15T10:33:09;7.90;;;4.67;;
313;SDS011;143;51.634;7.112;2024-01-15T10:35:36;5.75;;;4.53;;
313;SDS011;143;51.634;7.112;2024-01-15T10:38:03;8.18;;;4.90;;
313;SDS011;143;51.634;7.112;2024-01-15T10:40:30;6.47;;;5.30;;
313;SDS011;143;51.634;7.112;2024-01-15T10:42:56;7.30;;;5.57;;
313;SDS011;143;51.634;7.112;2024-01-15T10:45:22;10.77;;;5.27;;
313;SDS011;143;51.634;7.112;2024-01-15T10:47:48;8.93;;;5.97;;
313;SDS011;143;51.634;7.112;2024-01-15T10:50:14;11.63;;;6.70;;
313;SDS011;143;51.634;7.112;2024-01-15T10:52:41;12.20;;;6.70;;
313;SDS011;143;51.634;7.112;2024-01-15T10:55:08;9.85;;;5.72;;
313;SDS011;143;51.634;7.112;2024-01-15T10:57:34;10.73;;;6.05;;
313;SDS011;143;51.634;7.112;2024-01-15T11:00:01;10.85;;;5.97;;
313;SDS011;143;51.634;7.112;2024-01-15T11:02:30;7.72;;;5.72;;
313;SDS011;143;51.634;7.112;2024-01-15T11:05:00;10.00;;;6.07;;
313;SDS011;143;51.634;7.112;2024-01-15T11:07:26;9.07;;;5.03;;
313;SDS011;143;51.634;7.112;2024-01-15T11:09:52;5.32;;;3.90;;
313;SDS011;143;51.634;7.112;2024-01-15T11:12:17;7.63;;;4.37;;
313;SDS011;143;51.634;7.112;2024-01-15T11:14:50;5.45;;;4.32;;
313;SDS011;143;51.634;7.112;2024-01-15T11:17:17;9.68;;;4.30;;
313;SDS011;143;51.634;7.112;2024-01-15T11:19:44;11.65;;;5.03;;
313;SDS011;143;51.634;7.112;2024-01-15T11:24:54;7.95;;;4.13;;
313;SDS011;143;51.634;7.112;2024-01-15T11:27:39;6.40;;;4.03;;
313;SDS011;143;51.634;7.112;2024-01-15T11:30:07;6.40;;;4.30;;
313;SDS011;143;51.634;7.112;2024-01-15T11:32:35;9.00;;;3.60;;
313;SDS011;143;51.634;7.112;2024-01-15T11:35:01;7.00;;;4.33;;
313;SDS011;143;51.634;7.112;2024-01-15T11:37:28;7.53;;;4.28;;
313;SDS011;143;51.634;7.112;2024-01-15T11:40:15;7.95;;;3.45;;
313;SDS011;143;51.634;7.112;2024-01-15T11:42:47;7.13;;;4.18;;
313;SDS011;143;51.634;7.112;2024-01-15T11:45:13;7.75;;;3.95;;
313;SDS011;143;51.634;7.112;2024-01-15T11:50:14;9.10;;;3.60;;
313;SDS011;143;51.634;7.112;2024-01-15T11:52:40;4.33;;;2.40;;
313;SDS011;143;51.634;7.112;2024-01-15T11:55:27;4.88;;;2.63;;
313;SDS011;143;51.634;7.112;2024-01-15T11:57:54;12.32;;;2.92;;
313;SDS011;143;51.634;7.112;2024-01-15T12:00:22;6.15;;;2.97;;
313;SDS011;143;51.634;7.112;2024-01-15T12:02:49;8.88;;;3.33;;
313;SDS011;143;51.634;7.112;2024-01-15T12:05:18;7.72;;;3.40;;
313;SDS011;143;51.634;7.112;2024-01-15T12:07:45;10.68;;;3.58;;
313;SDS011;143;51.634;7.112;2024-01-15T12:10:13;6.90;;;3.75;;
313;SDS011;143;51.634;7.112;2024-01-15T12:12:57;7.43;;;3.92;;
313;SDS011;143;51.634;7.112;2024-01-15T12:15:24;14.18;;;5.18;;
313;SDS011;143;51.634;7.112;2024-01-15T12:17:51;7.75;;;5.03;;
313;SDS011;143;51.634;7.112;2024-01-15T12:20:17;8.37;;;5.83;;
313;SDS011;143;51.634;7.112;2024-01-15T12:22:43;9.52;;;5.20;;
313;SDS011;143;51.634;7.112;2024-01-15T12:25:09;11.15;;;4.63;;
313;SDS011;143;51.634;7.112;2024-01-15T12:27:35;8.82;;;4.70;;
313;SDS011;143;51.634;7.112;2024-01-15T12:30:01;11.90;;;5.00;;
313;SDS011;143;51.634;7.112;2024-01-15T12:32:26;7.57;;;5.07;;
313;SDS011;143;51.634;7.112;2024-01-15T12:34:52;10.20;;;5.80;;
313;SDS011;143;51.634;7.112;2024-01-15T12:37:18;11.03;;;5.63;;
313;SDS011;143;51.634;7.112;2024-01-15T12:39:44;7.20;;;4.90;;
313;SDS011;143;51.634;7.112;2024-01-15T12:42:10;17.90;;;5.40;;
313;SDS011;143;51.634;7.112;2024-01-15T12:44:35;8.03;;;4.40;;
313;SDS011;143;51.634;7.112;2024-01-15T12:47:04;11.77;;;4.35;;
313;SDS011;143;51.634;7.112;2024-01-15T12:49:38;11.65;;;3.80;;
313;SDS011;143;51.634;7.112;2024-01-15T12:52:07;8.27;;;4.35;;
313;SDS011;143;51.634;7.112;2024-01-15T12:54:33;9.45;;;3.58;;
313;SDS011;143;51.634;7.112;2024-01-15T12:56:59;11.23;;;3.47;;
313;SDS011;143;51.634;7.112;2024-01-15T12:59:25;8.67;;;2.70;;
313;SDS011;143;51.634;7.112;2024-01-15T13:01:50;5.03;;;3.03;;
313;SDS011;143;51.634;7.112;2024-01-15T13:04:22;6.87;;;3.00;;
313;SDS011;143;51.634;7.112;2024-01-15T13:06:49;4.93;;;3.03;;
313;SDS011;143;51.634;7.112;2024-01-15T13:09:15;5.80;;;3.08;;
313;SDS011;143;51.634;7.112;2024-01-15T13:11:40;5.10;;;2.63;;
313;SDS011;143;51.634;7.112;2024-01-15T13:14:06;6.20;;;2.97;;
313;SDS011;143;51.634;7.112;2024-01-15T13:16:32;16.87;;;3.47;;
313;SDS011;143;51.634;7.112;2024-01-15T13:18:57;5.40;;;2.93;;
313;SDS011;143;51.634;7.112;2024-01-15T13:21:23;6.15;;;2.78;;
313;SDS011;143;51.634;7.112;2024-01-15T13:23:49;6.07;;;2.40;;
313;SDS011;143;51.634;7.112;2024-01-15T13:26:15;5.83;;;2.17;;
313;SDS011;143;51.634;7.112;2024-01-15T13:28:43;10.68;;;2.60;;
313;SDS011;143;51.634;7.112;2024-01-15T13:31:08;5.17;;;2.17;;
313;SDS011;143;51.634;7.112;2024-01-15T13:33:34;7.80;;;2.50;;
313;SDS011;143;51.634;7.112;2024-01-15T13:36:00;6.10;;;2.00;;
313;SDS011;143;51.634;7.112;2024-01-15T13:38:25;3.93;;;2.17;;
313;SDS011;143;51.634;7.112;2024-01-15T13:40:52;2.47;;;1.70;;
313;SDS011;143;51.634;7.112;2024-01-15T13:43:20;12.75;;;2.08;;
313;SDS011;143;51.634;7.112;2024-01-15T13:45:45;6.90;;;2.20;;
313;SDS011;143;51.634;7.112;2024-01-15T13:48:11;7.80;;;2.07;;
313;SDS011;143;51.634;7.112;2024-01-15T13:50:37;10.57;;;1.77;;
313;SDS011;143;51.634;7.112;2024-01-15T13:53:03;3.50;;;1.83;;
313;SDS011;143;51.634;7.112;2024-01-15T13:55:29;8.45;;;2.22;;
313;SDS011;143;51.634;7.112;2024-01-15T13:57:55;6.57;;;1.42;;
313;SDS011;143;51.634;7.112;2024-01-15T14:00:20;4.17;;;1.80;;
313;SDS011;143;51.634;7.112;2024-01-15T14:02:46;12.47;;;2.67;;
313;SDS011;143;51.634;7.112;2024-01-15T14:05:12;6.03;;;2.35;;
313;SDS011;143;51.634;7.112;2024-01-15T14:07:38;3.50;;;1.73;;
313;SDS011;143;51.634;7.112;2024-01-15T14:10:04;11.38;;;2.17;;
313;SDS011;143;51.634;7.112;2024-01-15T14:12:31;5.20;;;1.90;;
313;SDS011;143;51.634;7.112;2024-01-15T14:14:58;4.05;;;1.67;;
313;SDS011;143;51.634;7.112;2024-01-15T14:17:24;4.33;;;1.57;;
313;SDS011;143;51.634;7.112;2024-01-15T14:19:49;2.03;;;1.40;;
313;SDS011;143;51.634;7.112;2024-01-15T14:22:15;3.63;;;1.90;;
313;SDS011;143;51.634;7.112;2024-01-15T14:24:40;6.47;;;1.47;;
313;SDS011;143;51.634;7.112;2024-01-15T14:27:06;2.90;;;1.30;;
313;SDS011;143;51.634;7.112;2024-01-15T14:29:32;2.50;;;1.30;;
313;SDS011;143;51.634;7.112;2024-01-15T14:31:58;14.73;;;2.00;;
313;SDS011;143;51.634;7.112;2024-01-15T14:34:24;5.87;;;1.60;;
313;SDS011;143;51.634;7.112;2024-01-15T14:36:50;4.93;;;1.67;;
313;SDS011;143;51.634;7.112;2024-01-15T14:39:18;6.85;;;1.35;;
313;SDS011;143;51.634;7.112;2024-01-15T14:41:44;3.03;;;1.87;;
313;SDS011;143;51.634;7.112;2024-01-15T14:44:11;2.75;;;1.25;;
313;SDS011;143;51.634;7.112;2024-01-15T14:46:37;5.15;;;2.40;;
313;SDS011;143;51.634;7.112;2024-01-15T14:49:03;8.33;;;1.83;;
313;SDS011;143;51.634;7.112;2024-01-15T14:51:28;2.60;;;1.90;;
313;SDS011;143;51.634;7.112;2024-01-15T14:53:54;3.97;;;1.90;;
313;SDS011;143;51.634;7.112;2024-01-15T14:56:19;3.77;;;1.60;;
313;SDS011;143;51.634;7.112;2024-01-15T14:58:45;5.78;;;1.80;;
313;SDS011;143;51.634;7.112;2024-01-15T15:01:11;7.60;;;2.73;;
313;SDS011;143;51.634;7.112;2024-01-15T15:03:38;6.57;;;2.30;;
313;SDS011;143;51.634;7.112;2024-01-15T15:06:04;14.75;;;2.40;;
313;SDS011;143;51.634;7.112;2024-01-15T15:08:30;11.43;;;2.30;;
313;SDS011;143;51.634;7.112;2024-01-15T15:10:55;5.77;;;2.83;;
313;SDS011;143;51.634;7.112;2024-01-15T15:13:21;8.60;;;1.83;;
313;SDS011;143;51.634;7.112;2024-01-15T15:15:48;8.43;;;1.90;;
313;SDS011;143;51.634;7.112;2024-01-15T15:18:13;6.80;;;2.13;;
313;SDS011;143;51.634;7.112;2024-01-15T15:20:39;6.73;;;2.90;;
313;SDS011;143;51.634;7.112;2024-01-15T15:23:04;7.20;;;2.10;;
313;SDS011;143;51.634;7.112;2024-01-15T15:25:33;10.25;;;2.40;;
313;SDS011;143;51.634;7.112;2024-01-15T15:28:00;10.30;;;2.15;;